Bungay, Illinois
Current Conditions -  °F | °C
As of 10:35 AM on Monday 24 Nov 2014 (Local Time) from KFWC Reporting Station
Broken Clouds Broken Clouds  
Wind Chill: 34°   Ceiling: 3900
Heat Index: 44°   Visibility: 10mi
Dew Point: 32°   Wind: 24mph
Humidity: 64%   Direction: 230°SW
Pressure: 29.66"   Gusts: 32mph
Location:  38.1658°N, 88.3782°W
Report Text: KFWC 241635Z AUTO 23021G28KT 10SM BKN039 07/00 A2966 RMK AO1 T00650001
Loading
Personal Weather Stations






























Interactive Weather Map New forecast layout! Learn more

10-Day Weather Forecast

Advertisements
Track Severe Weather on mobile